Time;durP1;ratioP1;P1;durP2;ratioP2;P2;SDS_P1;SDS_P2;PMS_P1;PMS_P2;Temp;Humidity;BMP_temperature;BMP_pressure;BME280_temperature;BME280_humidity;BME280_pressure;Samples;Min_cycle;Max_cycle;Signal;HPM_P1;HPM_P2
2021/03/06 00:00:41;;;;;;;4.88;1.90;;;-3274.30;86.60;;;;;;4957176;28;20067;-78
2021/03/06 00:03:08;;;;;;;2.70;1.30;;;-3274.30;86.50;;;;;;4949852;28;20401;-78
2021/03/06 00:05:35;;;;;;;5.30;2.25;;;-3274.20;86.30;;;;;;4940593;29;20059;-78
2021/03/06 00:08:03;;;;;;;3.20;1.65;;;-3274.30;86.50;;;;;;4948223;28;20055;-78
2021/03/06 00:10:30;;;;;;;3.30;1.77;;;-3274.30;86.60;;;;;;4951057;28;20052;-78
2021/03/06 00:12:57;;;;;;;4.75;2.08;;;-3274.20;86.60;;;;;;4935932;29;20127;-78
2021/03/06 00:15:27;;;;;;;3.10;2.05;;;-3274.20;86.60;;;;;;4958043;28;20245;-76
2021/03/06 00:17:54;;;;;;;4.93;2.10;;;-3274.20;86.50;;;;;;4934434;29;20334;-79
2021/03/06 00:20:21;;;;;;;2.58;1.50;;;-3274.10;86.60;;;;;;4937345;29;20136;-78
2021/03/06 00:22:52;;;;;;;4.20;2.30;;;-3274.10;87.00;;;;;;4934719;29;20043;-76
2021/03/06 00:25:20;;;;;;;4.72;2.10;;;-3274.10;86.90;;;;;;4947701;29;20483;-77
2021/03/06 00:27:51;;;;;;;4.80;1.73;;;-3274.10;86.70;;;;;;4953713;28;20200;-78
2021/03/06 00:30:19;;;;;;;6.07;2.30;;;-3274.00;86.60;;;;;;4949873;28;20285;-76
2021/03/06 00:32:50;;;;;;;3.95;1.60;;;-3274.00;86.80;;;;;;4949251;28;20062;-77
2021/03/06 00:35:19;;;;;;;5.45;2.70;;;-3273.90;86.50;;;;;;4955900;29;20113;-77
2021/03/06 00:37:47;;;;;;;4.75;1.45;;;-3273.90;87.10;;;;;;4935844;29;20074;-79
2021/03/06 00:40:14;;;;;;;4.50;1.90;;;-3273.90;87.30;;;;;;4937409;29;20257;-79
2021/03/06 00:42:41;;;;;;;4.15;1.73;;;-3274.00;87.20;;;;;;4954432;28;20059;-78
2021/03/06 00:45:10;;;;;;;2.90;1.33;;;-3273.90;87.10;;;;;;4948868;29;20296;-78
2021/03/06 00:47:41;;;;;;;3.17;1.50;;;-3273.90;87.30;;;;;;4937668;28;20122;-78
2021/03/06 00:50:18;;;;;;;2.70;1.83;;;-3273.90;87.40;;;;;;4954857;28;20075;-78
2021/03/06 00:52:45;;;;;;;5.35;2.00;;;-3273.90;87.30;;;;;;4932863;29;20067;-77
2021/03/06 00:55:15;;;;;;;4.55;1.52;;;-3273.90;87.40;;;;;;4951589;28;20058;-77
2021/03/06 00:57:46;;;;;;;5.83;1.83;;;-3273.80;87.50;;;;;;4941856;28;20670;-77
2021/03/06 01:00:18;;;;;;;5.65;2.10;;;-3273.80;87.50;;;;;;4938508;29;20051;-78
2021/03/06 01:02:52;;;;;;;3.17;1.20;;;-3273.80;87.40;;;;;;4953425;29;20392;-78
2021/03/06 01:05:23;;;;;;;3.40;1.50;;;-3273.80;87.60;;;;;;4920451;28;20144;-77
2021/03/06 01:07:50;;;;;;;1.75;0.88;;;-3273.80;87.70;;;;;;4945245;28;20128;-76
2021/03/06 01:10:36;;;;;;;3.47;1.52;;;-3273.80;87.80;;;;;;4939099;28;20051;-79
2021/03/06 01:13:04;;;;;;;2.38;1.20;;;-3273.80;87.90;;;;;;4935492;29;20074;-78
2021/03/06 01:15:31;;;;;;;3.15;1.30;;;-3273.70;87.80;;;;;;4936074;28;20061;-78
2021/03/06 01:18:00;;;;;;;4.60;1.13;;;-3273.70;88.00;;;;;;4938410;29;20460;-80
2021/03/06 01:20:42;;;;;;;5.05;2.08;;;-3273.70;87.90;;;;;;5056141;27;20443;-58
2021/03/06 01:23:09;;;;;;;4.65;2.40;;;-3273.70;87.60;;;;;;5048955;28;20136;-60
2021/03/06 01:25:36;;;;;;;3.33;1.40;;;-3273.60;87.90;;;;;;5077311;27;20599;-59
2021/03/06 01:28:04;;;;;;;1.92;1.23;;;-3273.60;87.50;;;;;;5061423;28;20385;-58
2021/03/06 01:30:31;;;;;;;1.58;1.02;;;-3273.50;87.70;;;;;;5059705;28;20091;-58
2021/03/06 01:33:00;;;;;;;2.08;0.77;;;-3273.50;88.30;;;;;;5059528;27;20386;-58
2021/03/06 01:35:30;;;;;;;1.65;1.00;;;-3273.50;88.30;;;;;;5059305;28;20288;-59
2021/03/06 01:37:59;;;;;;;4.13;1.88;;;-3273.50;88.20;;;;;;5060063;27;20067;-59
2021/03/06 01:40:28;;;;;;;2.17;1.48;;;-3273.50;88.20;;;;;;5057399;28;20057;-58
2021/03/06 01:42:56;;;;;;;1.67;1.10;;;-3273.40;88.50;;;;;;5064979;28;21356;-59
2021/03/06 01:45:23;;;;;;;4.32;2.22;;;-3273.50;88.50;;;;;;5056397;28;20068;-58
2021/03/06 01:47:51;;;;;;;2.22;1.48;;;-3273.40;88.30;;;;;;5060658;28;20238;-59
2021/03/06 01:50:23;;;;;;;2.85;0.98;;;-3273.40;88.20;;;;;;5046259;28;20337;-59
2021/03/06 01:52:51;;;;;;;2.28;1.33;;;-3273.40;88.30;;;;;;5034313;28;20065;-59
2021/03/06 01:55:24;;;;;;;1.92;0.95;;;-3273.30;88.00;;;;;;5038595;28;20050;-59
2021/03/06 01:57:52;;;;;;;2.90;1.33;;;-3273.30;88.40;;;;;;5036414;28;20110;-59
2021/03/06 02:00:21;;;;;;;1.33;0.75;;;-3273.30;88.60;;;;;;5053621;28;21085;-58
2021/03/06 02:02:53;;;;;;;1.90;1.00;;;-3273.40;88.40;;;;;;5053404;28;20056;-57
2021/03/06 02:05:25;;;;;;;1.95;1.10;;;-3273.40;88.20;;;;;;5022107;28;20049;-58
2021/03/06 02:07:52;;;;;;;5.07;2.03;;;-3273.30;88.30;;;;;;5036294;28;20041;-58
2021/03/06 02:10:26;;;;;;;2.22;1.02;;;-3273.30;88.60;;;;;;5034311;28;20045;-57
2021/03/06 02:13:07;;;;;;;6.60;2.22;;;-3273.30;88.60;;;;;;5036349;28;20057;-58
2021/03/06 02:15:44;;;;;;;2.00;1.30;;;-3273.20;88.50;;;;;;5036110;28;20073;-59
2021/03/06 02:18:19;;;;;;;3.53;1.42;;;-3273.20;88.60;;;;;;5034143;28;20113;-59
2021/03/06 02:20:51;;;;;;;3.70;1.55;;;-3273.10;88.70;;;;;;5034849;28;20328;-57
2021/03/06 02:23:58;;;;;;;2.53;1.25;;;-3273.20;88.80;;;;;;5031256;28;20052;-58
2021/03/06 02:26:42;;;;;;;2.10;1.13;;;-3273.20;88.90;;;;;;5043804;28;20356;-58
2021/03/06 02:29:34;;;;;;;4.43;1.92;;;-3273.30;88.80;;;;;;5034347;28;20049;-58
2021/03/06 02:32:12;;;;;;;4.60;1.90;;;-3273.30;88.80;;;;;;5022416;28;20399;-58
2021/03/06 02:34:50;;;;;;;3.42;1.50;;;-3273.20;88.70;;;;;;5024486;28;20046;-58
2021/03/06 02:37:22;;;;;;;2.88;1.83;;;-3273.10;88.60;;;;;;5022094;28;20077;-58
2021/03/06 02:39:55;;;;;;;4.38;1.77;;;-3273.10;88.90;;;;;;5021305;28;20491;-58
2021/03/06 02:42:25;;;;;;;9.77;2.17;;;-3273.10;89.40;;;;;;5032234;28;20333;-58
2021/03/06 02:44:59;;;;;;;2.45;1.27;;;-3273.10;89.30;;;;;;5034163;28;20045;-58
2021/03/06 02:47:27;;;;;;;4.28;2.00;;;-3273.10;89.20;;;;;;5029706;28;20057;-58
2021/03/06 02:49:56;;;;;;;5.50;2.00;;;-3273.10;89.10;;;;;;5023626;28;20366;-58
2021/03/06 02:52:23;;;;;;;1.70;1.13;;;-3273.10;89.20;;;;;;5021919;28;20053;-57
2021/03/06 02:54:51;;;;;;;3.50;1.65;;;-3273.10;89.50;;;;;;5023270;28;20406;-58
2021/03/06 02:57:50;;;;;;;3.63;2.33;;;-3273.00;89.40;;;;;;5038643;28;20324;-58
2021/03/06 03:00:35;;;;;;;2.50;1.52;;;-3273.00;89.30;;;;;;5017401;28;20623;-59
2021/03/06 03:03:27;;;;;;;7.03;2.67;;;-3273.00;89.20;;;;;;5023613;28;20049;-58
2021/03/06 03:06:10;;;;;;;4.35;2.05;;;-3272.90;89.10;;;;;;5040547;28;20348;-59
2021/03/06 03:08:43;;;;;;;3.70;2.85;;;-3272.90;89.10;;;;;;5030792;28;20064;-58
2021/03/06 03:11:14;;;;;;;4.10;2.30;;;-3272.80;89.10;;;;;;5024378;28;20496;-59
2021/03/06 03:13:48;;;;;;;3.97;2.05;;;-3272.80;89.40;;;;;;5020764;28;20046;-58
2021/03/06 03:16:21;;;;;;;5.22;2.15;;;-3272.80;89.50;;;;;;5026619;28;20053;-59
2021/03/06 03:18:52;;;;;;;4.07;2.55;;;-3272.80;89.40;;;;;;5039727;28;20054;-58
2021/03/06 03:21:24;;;;;;;4.35;1.83;;;-3272.90;89.60;;;;;;5025428;28;20623;-57
2021/03/06 03:23:56;;;;;;;2.42;1.23;;;-3272.80;89.40;;;;;;5055651;28;20221;-59
2021/03/06 03:26:25;;;;;;;5.20;2.25;;;-3272.80;89.20;;;;;;5046094;28;20048;-58
2021/03/06 03:28:54;;;;;;;3.83;1.52;;;-3272.80;89.20;;;;;;5031902;28;20464;-58
2021/03/06 03:31:26;;;;;;;5.22;1.63;;;-3272.70;89.20;;;;;;5032398;28;20347;-58
2021/03/06 03:33:56;;;;;;;3.60;2.05;;;-3272.70;89.50;;;;;;5033844;28;20053;-60
2021/03/06 03:36:25;;;;;;;1.60;1.23;;;-3272.70;89.40;;;;;;5033536;28;20062;-59
2021/03/06 03:38:54;;;;;;;3.25;1.65;;;-3272.70;89.60;;;;;;5033256;28;20198;-58
2021/03/06 03:41:22;;;;;;;2.42;1.13;;;-3272.80;89.50;;;;;;5032059;28;20046;-58
2021/03/06 03:43:53;;;;;;;4.45;1.90;;;-3272.70;89.20;;;;;;5030525;28;20348;-58
2021/03/06 03:46:23;;;;;;;3.30;1.70;;;-3272.70;89.20;;;;;;5035720;28;20340;-59
2021/03/06 03:48:51;;;;;;;5.35;1.70;;;-3272.70;89.40;;;;;;5049627;28;20413;-58
2021/03/06 03:51:18;;;;;;;1.83;0.95;;;-3272.70;89.40;;;;;;5048595;28;20349;-58
2021/03/06 03:53:49;;;;;;;3.88;2.58;;;-3272.70;89.20;;;;;;5036393;28;20394;-58
2021/03/06 03:56:19;;;;;;;3.80;1.15;;;-3272.70;89.00;;;;;;5031895;28;20053;-59
2021/03/06 03:58:47;;;;;;;3.10;1.17;;;-3272.60;89.00;;;;;;5036672;28;20042;-58
2021/03/06 04:01:14;;;;;;;2.83;1.25;;;-3272.60;89.20;;;;;;5035303;28;20049;-58
2021/03/06 04:03:42;;;;;;;1.45;0.98;;;-3272.70;89.20;;;;;;5040885;28;20045;-59
2021/03/06 04:06:10;;;;;;;8.20;1.52;;;-3272.60;89.00;;;;;;5030058;28;20247;-59
2021/03/06 04:08:37;;;;;;;2.95;1.05;;;-3272.60;89.40;;;;;;5028541;28;20344;-59
2021/03/06 04:11:06;;;;;;;3.08;1.05;;;-3272.60;89.30;;;;;;5027433;28;20053;-58
2021/03/06 04:13:33;;;;;;;3.88;1.15;;;-3272.60;89.60;;;;;;5039275;28;20104;-59
2021/03/06 04:15:59;;;;;;;2.60;1.45;;;-3272.70;89.40;;;;;;5033856;28;20124;-59
2021/03/06 04:18:28;;;;;;;2.17;1.27;;;-3272.70;89.20;;;;;;5039667;28;20100;-58
2021/03/06 04:20:58;;;;;;;6.88;1.88;;;-3272.70;89.10;;;;;;5029409;28;20071;-59
2021/03/06 04:23:25;;;;;;;1.98;1.40;;;-3272.60;88.90;;;;;;5030668;28;20554;-58
2021/03/06 04:25:54;;;;;;;5.13;1.83;;;-3272.60;89.20;;;;;;5024369;28;20109;-58
2021/03/06 04:28:21;;;;;;;6.43;2.70;;;-3272.50;89.30;;;;;;5028237;28;20050;-58
2021/03/06 04:30:51;;;;;;;3.83;1.15;;;-3272.50;89.10;;;;;;5024132;28;20073;-59
2021/03/06 04:33:23;;;;;;;2.75;1.67;;;-3272.40;89.10;;;;;;5030453;28;20045;-59
2021/03/06 04:35:50;;;;;;;9.50;1.45;;;-3272.50;89.40;;;;;;5044827;28;20333;-59
2021/03/06 04:38:18;;;;;;;1.95;1.25;;;-3272.50;89.40;;;;;;5030172;28;20050;-58
2021/03/06 04:40:45;;;;;;;3.25;1.25;;;-3272.50;89.30;;;;;;5030401;28;20053;-59
2021/03/06 04:43:12;;;;;;;3.63;1.85;;;-3272.40;89.10;;;;;;5029126;28;20108;-59
2021/03/06 04:45:51;;;;;;;1.63;1.02;;;-3272.40;89.10;;;;;;5254211;23;20125;-58
2021/03/06 04:48:21;;;;;;;5.38;1.67;;;-3272.40;88.90;;;;;;5027425;28;20269;-81
2021/03/06 04:50:49;;;;;;;2.40;1.13;;;-3272.40;89.00;;;;;;5286701;22;20143;-78
2021/03/06 04:53:17;;;;;;;1.90;1.25;;;-3272.40;89.10;;;;;;5028606;28;20068;-79
2021/03/06 04:55:45;;;;;;;2.08;0.52;;;-3272.40;88.80;;;;;;5031355;28;20126;-78
2021/03/06 04:58:15;;;;;;;0.98;0.70;;;-3272.30;89.00;;;;;;5019646;28;20061;-77
2021/03/06 05:00:45;;;;;;;2.55;0.98;;;-3272.30;89.20;;;;;;5019231;28;20065;-78
2021/03/06 05:03:12;;;;;;;6.00;2.10;;;-3272.30;89.40;;;;;;5035404;28;20049;-76
2021/03/06 05:05:40;;;;;;;1.80;1.10;;;-3272.30;89.30;;;;;;5039855;28;20049;-78
2021/03/06 05:08:07;;;;;;;1.63;0.93;;;-3272.20;89.20;;;;;;5035864;28;20416;-80
2021/03/06 05:10:35;;;;;;;2.90;1.10;;;-3272.20;89.30;;;;;;5037105;28;20037;-77
2021/03/06 05:13:05;;;;;;;2.80;1.00;;;-3272.20;89.40;;;;;;5039469;28;20045;-79
2021/03/06 05:15:34;;;;;;;4.93;1.70;;;-3272.20;89.30;;;;;;5031953;28;20121;-77
2021/03/06 05:18:04;;;;;;;2.78;1.55;;;-3272.20;88.90;;;;;;5027760;28;20076;-78
2021/03/06 05:20:31;;;;;;;4.07;1.60;;;-3272.20;88.80;;;;;;5026524;28;20054;-77
2021/03/06 05:22:59;;;;;;;3.03;0.82;;;-3272.20;89.10;;;;;;4999914;28;20121;-79
2021/03/06 05:25:29;;;;;;;3.45;1.10;;;-3272.20;89.20;;;;;;4980877;28;75070;-76
2021/03/06 05:28:21;;;;;;;1.75;1.15;;;-3272.30;89.60;;;;;;5115543;27;20393;-58
2021/03/06 05:30:49;;;;;;;0.45;0.30;;;-3272.20;89.00;;;;;;5093490;28;20346;-57
2021/03/06 05:33:18;;;;;;;1.08;0.65;;;-3272.10;88.80;;;;;;5095281;28;20069;-59
2021/03/06 05:35:51;;;;;;;5.85;1.23;;;-3272.10;89.00;;;;;;5097582;28;20487;-58
2021/03/06 05:38:18;;;;;;;3.45;1.17;;;-3272.10;89.50;;;;;;5096971;28;20059;-58
2021/03/06 05:40:48;;;;;;;4.13;1.40;;;-3272.20;89.50;;;;;;5099828;28;20102;-58
2021/03/06 05:43:19;;;;;;;4.40;1.10;;;-3272.10;89.10;;;;;;5094301;28;20065;-57
2021/03/06 05:45:47;;;;;;;2.08;1.00;;;-3272.00;89.30;;;;;;5100310;28;20064;-58
2021/03/06 05:48:17;;;;;;;1.95;0.73;;;-3272.10;89.50;;;;;;5097146;28;20105;-58
2021/03/06 05:50:44;;;;;;;2.72;1.52;;;-3272.10;89.40;;;;;;5088785;28;20210;-58
2021/03/06 05:53:15;;;;;;;2.20;0.90;;;-3272.10;89.40;;;;;;5072411;28;20453;-57
2021/03/06 05:55:44;;;;;;;3.17;1.40;;;-3272.10;89.30;;;;;;5095250;28;20054;-58
2021/03/06 05:58:12;;;;;;;3.13;1.30;;;-3272.10;89.10;;;;;;5083779;28;20044;-58
2021/03/06 06:00:42;;;;;;;3.38;1.42;;;-3272.00;89.10;;;;;;5093513;28;20076;-57
2021/03/06 06:03:09;;;;;;;4.63;2.15;;;-3272.00;89.40;;;;;;5101237;28;20177;-58
2021/03/06 06:05:36;;;;;;;2.38;1.17;;;-3272.10;89.40;;;;;;5102321;28;20071;-58
2021/03/06 06:08:05;;;;;;;2.78;1.58;;;-3272.10;89.40;;;;;;5097205;28;20055;-58
2021/03/06 06:10:33;;;;;;;4.13;1.67;;;-3272.20;89.20;;;;;;5107532;28;20039;-58
2021/03/06 06:13:00;;;;;;;3.03;1.38;;;-3272.20;89.00;;;;;;5112547;28;20533;-57
2021/03/06 06:15:29;;;;;;;5.38;1.98;;;-3272.20;88.80;;;;;;5105682;28;20048;-57
2021/03/06 06:17:57;;;;;;;2.00;1.50;;;-3272.20;88.90;;;;;;5107387;28;20067;-57
2021/03/06 06:20:24;;;;;;;2.33;1.83;;;-3272.20;88.90;;;;;;5110139;28;20135;-58
2021/03/06 06:23:08;;;;;;;2.95;1.08;;;-3272.30;88.90;;;;;;5115903;28;20048;-59
2021/03/06 06:25:35;;;;;;;2.25;1.02;;;-3272.30;88.90;;;;;;5117508;28;20107;-59
2021/03/06 06:28:15;;;;;;;2.17;1.00;;;-3272.30;89.00;;;;;;5116698;28;20048;-58
2021/03/06 06:31:08;;;;;;;;;;;-3272.40;89.00;;;;;;5118150;28;20075;-58
2021/03/06 06:33:43;;;;;;;1.27;1.00;;;-3272.40;89.00;;;;;;5118705;28;19915;-58
2021/03/06 06:36:38;;;;;;;3.55;2.45;;;-3272.50;88.80;;;;;;5103743;28;20497;-58
2021/03/06 06:39:07;;;;;;;3.00;1.63;;;-3272.40;88.70;;;;;;5086235;28;20428;-58
2021/03/06 06:41:51;;;;;;;5.20;2.25;;;-3272.50;88.70;;;;;;5082609;28;20056;-58
2021/03/06 06:44:18;;;;;;;7.63;2.20;;;-3272.50;88.80;;;;;;5082093;28;20538;-58
2021/03/06 06:46:49;;;;;;;10.57;2.50;;;-3272.60;88.90;;;;;;5084052;28;20091;-58
2021/03/06 06:49:17;;;;;;;5.38;1.63;;;-3272.70;88.80;;;;;;5088641;28;20080;-58
2021/03/06 06:51:57;;;;;;;4.43;1.48;;;-3272.80;88.40;;;;;;5088665;28;20051;-56
2021/03/06 06:54:25;;;;;;;3.80;2.20;;;-3272.90;87.70;;;;;;5083103;28;20901;-58
2021/03/06 06:57:17;;;;;;;5.95;2.38;;;-3273.00;87.40;;;;;;5083976;28;20048;-57
2021/03/06 06:59:54;;;;;;;4.20;1.73;;;-3273.00;87.60;;;;;;5084602;28;20043;-58
2021/03/06 07:02:22;;;;;;;3.47;1.77;;;-3273.00;87.60;;;;;;5100222;28;20493;-57
2021/03/06 07:04:55;;;;;;;4.57;1.65;;;-3273.00;88.10;;;;;;5103918;28;20267;-58
2021/03/06 07:07:24;;;;;;;2.22;1.30;;;-3273.10;87.80;;;;;;5102187;28;20418;-57
2021/03/06 07:10:10;;;;;;;5.00;2.70;;;-3273.20;87.70;;;;;;5097776;28;20071;-57
2021/03/06 07:12:39;;;;;;;3.53;1.52;;;-3273.30;87.70;;;;;;5095299;28;20326;-58
2021/03/06 07:15:14;;;;;;;6.55;2.20;;;-3273.30;87.70;;;;;;5094191;28;20202;-58
2021/03/06 07:17:43;;;;;;;3.03;1.67;;;-3273.40;87.50;;;;;;5098507;28;20040;-57
2021/03/06 07:20:27;;;;;;;4.25;1.73;;;-3273.50;87.20;;;;;;5078748;28;20851;-57
2021/03/06 07:22:58;;;;;;;3.63;1.77;;;-3273.60;87.00;;;;;;5081607;28;20048;-57
2021/03/06 07:25:27;;;;;;;1.38;0.90;;;-3273.70;86.60;;;;;;5082504;28;20086;-58
2021/03/06 07:27:54;;;;;;;5.22;1.70;;;-3273.80;86.50;;;;;;5089116;28;20116;-58
2021/03/06 07:30:21;;;;;;;8.55;2.45;;;-3273.90;86.30;;;;;;5083715;28;20052;-57
2021/03/06 07:32:51;;;;;;;4.80;1.67;;;-3274.00;86.20;;;;;;5075934;28;20047;-57
2021/03/06 07:35:24;;;;;;;1.98;1.20;;;-3274.00;86.10;;;;;;5081880;28;20375;-58
2021/03/06 07:37:58;;;;;;;3.40;1.77;;;-3274.10;85.80;;;;;;5069478;28;20052;-59
2021/03/06 07:40:30;;;;;;;3.28;1.83;;;-3274.20;85.50;;;;;;5077392;28;20313;-57
2021/03/06 07:43:00;;;;;;;5.13;2.15;;;-3274.30;85.50;;;;;;5075792;28;20040;-58
2021/03/06 07:45:30;;;;;;;2.75;1.02;;;-3274.30;85.50;;;;;;5074544;28;20044;-58
2021/03/06 07:48:11;;;;;;;1.83;1.48;;;-3274.40;85.30;;;;;;5087337;28;20047;-57
2021/03/06 07:50:41;;;;;;;4.18;1.92;;;-3274.50;85.10;;;;;;5072700;28;20055;-58
2021/03/06 07:53:09;;;;;;;4.30;1.80;;;-3274.60;84.80;;;;;;5090892;28;20063;-58
2021/03/06 07:55:37;;;;;;;6.18;3.50;;;-3274.60;84.70;;;;;;5076622;28;20202;-58
2021/03/06 07:58:16;;;;;;;5.95;3.72;;;-3274.70;84.60;;;;;;5079890;28;20355;-58
2021/03/06 08:00:51;;;;;;;7.60;2.03;;;-3274.80;84.70;;;;;;5075685;28;20048;-58
2021/03/06 08:03:37;;;;;;;5.25;2.13;;;-3274.90;84.40;;;;;;5074158;28;20108;-58
2021/03/06 08:06:19;;;;;;;3.53;1.60;;;-3275.00;84.20;;;;;;5079123;28;20365;-58
2021/03/06 08:09:13;;;;;;;6.30;2.47;;;-3275.10;84.10;;;;;;5093162;28;20066;-57
2021/03/06 08:11:42;;;;;;;3.28;2.22;;;-3275.20;83.40;;;;;;5096621;28;20090;-57
2021/03/06 08:14:30;;;;;;;5.03;2.03;;;-3275.30;83.00;;;;;;5102620;28;20059;-58
2021/03/06 08:16:58;;;;;;;3.38;1.58;;;-3275.50;83.20;;;;;;5105090;28;20055;-58
2021/03/06 08:19:29;;;;;;;5.03;2.97;;;-3275.60;82.20;;;;;;5059911;28;20145;-57
2021/03/06 08:22:22;;;;;;;4.45;2.30;;;-3275.60;81.60;;;;;;5094925;28;20056;-58
2021/03/06 08:24:49;;;;;;;6.85;2.35;;;-3275.80;81.20;;;;;;5086271;28;20439;-58
2021/03/06 08:27:23;;;;;;;6.18;2.67;;;-3275.90;80.30;;;;;;5098419;28;20047;-57
2021/03/06 08:29:55;;;;;;;4.90;1.88;;;-3276.00;79.80;;;;;;5098643;28;20257;-57
2021/03/06 08:32:37;;;;;;;7.10;1.90;;;-3276.10;79.80;;;;;;3641760;28;10020717;-57
2021/03/06 08:35:20;;;;;;;7.07;2.55;;;-3276.20;79.60;;;;;;3122108;28;10002073;-58
2021/03/06 08:37:49;;;;;;;3.75;2.35;;;-3276.30;79.20;;;;;;5035741;28;20053;-58
2021/03/06 08:40:23;;;;;;;3.95;1.83;;;-3276.50;78.90;;;;;;5035489;28;20045;-58
2021/03/06 08:42:51;;;;;;;6.13;3.55;;;-3276.60;78.30;;;;;;5035795;28;20049;-59
2021/03/06 08:45:21;;;;;;;5.97;3.50;;;0.00;78.10;;;;;;5037261;28;20228;-58
2021/03/06 08:47:52;;;;;;;5.07;2.83;;;0.00;78.30;;;;;;5035189;28;20049;-58
2021/03/06 08:50:21;;;;;;;8.48;3.10;;;0.10;78.10;;;;;;5034700;28;20056;-58
2021/03/06 08:53:00;;;;;;;10.25;1.95;;;0.20;77.80;;;;;;5037370;28;20285;-59
2021/03/06 08:55:30;;;;;;;6.82;3.03;;;0.40;76.50;;;;;;5034908;28;20239;-58
2021/03/06 08:58:02;;;;;;;6.22;3.03;;;0.50;74.60;;;;;;5044349;28;20052;-58
2021/03/06 09:00:35;;;;;;;3.60;1.73;;;0.60;75.10;;;;;;5050352;28;20071;-58
2021/03/06 09:03:13;;;;;;;4.78;2.67;;;0.80;74.60;;;;;;5031727;28;20276;-57
2021/03/06 09:05:41;;;;;;;2.97;1.55;;;0.90;74.10;;;;;;5034299;28;20209;-57
2021/03/06 09:08:09;;;;;;;5.18;1.75;;;1.00;72.60;;;;;;5034722;28;20053;-58
2021/03/06 09:10:39;;;;;;;5.43;1.95;;;1.20;72.40;;;;;;5044317;28;20049;-57
2021/03/06 09:13:11;;;;;;;9.57;3.03;;;1.40;71.60;;;;;;5039793;28;20076;-57
2021/03/06 09:15:48;;;;;;;6.72;2.58;;;1.50;71.50;;;;;;5035566;28;20330;-57
2021/03/06 09:18:18;;;;;;;5.28;2.70;;;1.70;70.30;;;;;;5036370;28;20411;-57
2021/03/06 09:20:56;;;;;;;3.33;1.98;;;1.90;69.00;;;;;;5035065;28;20049;-58
2021/03/06 09:23:31;;;;;;;5.55;1.35;;;2.00;68.00;;;;;;5037033;28;20678;-58
2021/03/06 09:26:02;;;;;;;3.17;1.08;;;2.30;67.40;;;;;;5040840;28;20332;-57
2021/03/06 09:28:35;;;;;;;3.60;1.90;;;2.60;65.30;;;;;;5035351;28;20086;-57
2021/03/06 09:31:10;;;;;;;4.00;1.70;;;3.20;64.40;;;;;;5044899;28;20228;-57
2021/03/06 09:33:38;;;;;;;4.55;2.00;;;3.70;62.20;;;;;;5052772;28;20060;-58
2021/03/06 09:36:07;;;;;;;3.80;1.10;;;4.30;60.60;;;;;;5051480;28;20122;-58
2021/03/06 09:38:43;;;;;;;3.33;1.52;;;4.80;57.70;;;;;;5054989;28;20072;-57
2021/03/06 09:41:11;;;;;;;9.20;2.05;;;5.50;56.40;;;;;;5041089;28;20057;-57
2021/03/06 09:43:40;;;;;;;3.72;1.90;;;6.20;53.10;;;;;;5033538;28;20041;-58
2021/03/06 09:46:13;;;;;;;2.70;1.35;;;7.00;50.80;;;;;;5036622;28;20045;-58
2021/03/06 09:48:48;;;;;;;2.92;1.63;;;7.70;47.70;;;;;;5035691;28;20078;-58
2021/03/06 09:51:15;;;;;;;4.50;2.13;;;8.80;45.00;;;;;;5037411;28;21133;-57
2021/03/06 09:53:55;;;;;;;5.32;1.73;;;9.50;42.80;;;;;;5035241;28;20275;-57
2021/03/06 09:56:22;;;;;;;4.18;1.60;;;10.40;41.40;;;;;;5034654;28;20520;-57
2021/03/06 09:58:58;;;;;;;3.88;1.75;;;11.30;38.40;;;;;;5036008;28;20049;-56
2021/03/06 10:01:25;;;;;;;6.07;2.00;;;11.90;36.20;;;;;;5040217;28;20049;-57
2021/03/06 10:03:55;;;;;;;6.88;2.42;;;12.30;34.60;;;;;;5038768;28;20344;-57
2021/03/06 10:06:26;;;;;;;7.22;1.80;;;12.60;33.50;;;;;;5039962;28;20057;-57
2021/03/06 10:08:56;;;;;;;3.85;1.30;;;13.10;32.60;;;;;;5030490;28;20057;-57
2021/03/06 10:11:27;;;;;;;;;;;13.40;30.00;;;;;;5037874;28;20060;-57
2021/03/06 10:13:55;;;;;;;4.43;1.38;;;13.70;29.00;;;;;;5037227;28;20028;-57
2021/03/06 10:16:22;;;;;;;6.22;2.03;;;13.40;29.20;;;;;;5040438;28;20053;-56
2021/03/06 10:18:49;;;;;;;5.47;2.35;;;14.00;29.10;;;;;;5047209;28;21027;-57
2021/03/06 10:21:19;;;;;;;6.03;2.03;;;14.30;29.80;;;;;;5040096;28;20052;-58
2021/03/06 10:23:47;;;;;;;4.88;1.88;;;15.00;26.60;;;;;;5055812;28;20076;-57
2021/03/06 10:26:24;;;;;;;4.78;2.38;;;15.10;27.20;;;;;;5053828;28;20366;-58
2021/03/06 10:28:55;;;;;;;3.45;1.73;;;15.30;26.20;;;;;;5047117;28;20048;-57
2021/03/06 10:31:34;;;;;;;4.38;1.83;;;15.50;26.30;;;;;;5044616;28;20053;-57
2021/03/06 10:34:19;;;;;;;9.05;3.03;;;15.80;24.90;;;;;;5039186;28;20363;-57
2021/03/06 10:37:08;;;;;;;5.85;2.53;;;15.60;25.70;;;;;;5048846;28;20064;-58
2021/03/06 10:39:49;;;;;;;4.05;1.83;;;15.70;25.40;;;;;;5061662;28;20053;-57
2021/03/06 10:42:17;;;;;;;4.93;2.33;;;16.40;24.30;;;;;;5052968;28;20528;-58
2021/03/06 10:44:44;;;;;;;6.13;2.03;;;16.60;23.70;;;;;;5060942;28;20301;-57
2021/03/06 10:47:11;;;;;;;4.60;2.08;;;15.40;24.30;;;;;;5057863;28;20048;-57
2021/03/06 10:49:40;;;;;;;5.68;2.20;;;16.00;25.00;;;;;;5057787;28;20049;-57
2021/03/06 10:52:22;;;;;;;4.13;2.13;;;17.00;23.20;;;;;;5055047;28;20049;-57
2021/03/06 10:54:50;;;;;;;4.65;1.92;;;17.70;22.20;;;;;;5040507;28;20217;-57
2021/03/06 10:57:18;;;;;;;5.75;2.42;;;17.90;22.80;;;;;;5051187;28;20055;-57
2021/03/06 10:59:45;;;;;;;4.22;1.83;;;18.20;20.10;;;;;;5051705;28;20128;-57
2021/03/06 11:02:27;;;;;;;4.05;2.05;;;18.60;21.30;;;;;;5057621;28;20053;-58
2021/03/06 11:04:55;;;;;;;4.35;1.88;;;18.10;20.60;;;;;;5046585;28;20037;-57
2021/03/06 11:07:27;;;;;;;4.20;1.90;;;18.70;20.10;;;;;;5040821;28;20100;-57
2021/03/06 11:10:00;;;;;;;3.53;1.98;;;18.70;20.30;;;;;;5057712;28;20045;-58
2021/03/06 11:12:33;;;;;;;3.38;1.75;;;18.60;20.30;;;;;;5059104;28;20115;-57
2021/03/06 11:15:12;;;;;;;5.68;1.60;;;18.90;19.10;;;;;;5056956;28;20068;-57
2021/03/06 11:17:41;;;;;;;4.85;1.48;;;18.80;18.50;;;;;;5061601;28;20056;-57
2021/03/06 11:20:09;;;;;;;3.78;1.80;;;18.90;18.40;;;;;;5046445;28;20536;-58
2021/03/06 11:22:37;;;;;;;4.15;1.75;;;18.80;18.30;;;;;;5055711;28;20391;-57
2021/03/06 11:25:05;;;;;;;5.60;1.98;;;19.10;18.50;;;;;;5046470;28;20070;-58
2021/03/06 11:27:46;;;;;;;5.00;1.65;;;19.00;19.10;;;;;;5034485;28;20049;-57
2021/03/06 11:30:16;;;;;;;4.60;2.05;;;19.60;18.00;;;;;;5036986;28;20368;-57
2021/03/06 11:32:44;;;;;;;3.88;1.70;;;19.40;17.70;;;;;;5037070;28;20053;-57
2021/03/06 11:35:12;;;;;;;6.03;1.63;;;19.40;17.80;;;;;;5037134;28;20056;-57
2021/03/06 11:37:40;;;;;;;5.38;1.77;;;19.70;17.70;;;;;;5035367;28;20057;-57
2021/03/06 11:40:08;;;;;;;3.20;1.33;;;19.70;16.90;;;;;;5038420;28;20104;-57
2021/03/06 11:42:35;;;;;;;4.57;1.58;;;19.40;16.60;;;;;;5057535;28;20151;-58
2021/03/06 11:45:05;;;;;;;3.25;1.42;;;19.60;17.20;;;;;;5054534;28;20258;-57
2021/03/06 11:47:31;;;;;;;3.58;1.70;;;19.60;16.90;;;;;;5048170;28;20163;-57
2021/03/06 11:49:58;;;;;;;4.82;1.90;;;18.50;17.60;;;;;;5041190;28;20327;-57
2021/03/06 11:52:26;;;;;;;5.78;2.53;;;19.60;17.60;;;;;;5039507;28;20235;-58
2021/03/06 11:54:52;;;;;;;8.30;6.43;;;20.30;17.40;;;;;;5038747;28;20060;-57
2021/03/06 11:57:19;;;;;;;4.50;2.25;;;20.20;17.10;;;;;;5040938;28;20042;-57
2021/03/06 11:59:46;;;;;;;4.30;2.03;;;20.20;17.50;;;;;;5040082;28;20045;-57
2021/03/06 12:02:14;;;;;;;3.05;1.40;;;20.80;16.30;;;;;;5038150;28;20045;-57
2021/03/06 12:04:41;;;;;;;3.40;1.88;;;20.80;15.80;;;;;;5037850;28;20053;-57
2021/03/06 12:07:08;;;;;;;4.28;1.70;;;21.10;15.90;;;;;;5040714;28;20112;-57
2021/03/06 12:09:35;;;;;;;5.00;1.52;;;21.50;16.10;;;;;;5038754;28;20064;-57
2021/03/06 12:12:03;;;;;;;4.35;2.30;;;21.70;16.10;;;;;;5041831;28;20172;-58
2021/03/06 12:14:30;;;;;;;3.13;1.52;;;21.80;15.80;;;;;;5041766;28;20064;-58
2021/03/06 12:16:57;;;;;;;5.68;2.08;;;21.80;15.90;;;;;;5035405;28;20412;-58
2021/03/06 12:19:27;;;;;;;3.83;1.60;;;22.10;15.30;;;;;;5038134;28;20108;-57
2021/03/06 12:21:54;;;;;;;5.75;1.85;;;22.20;14.70;;;;;;5039766;28;20342;-58
2021/03/06 12:24:21;;;;;;;4.15;1.83;;;22.30;15.50;;;;;;5041794;28;20056;-57
2021/03/06 12:26:48;;;;;;;3.92;1.75;;;22.40;15.00;;;;;;5039683;28;20054;-57
2021/03/06 12:29:17;;;;;;;4.22;1.80;;;22.20;14.90;;;;;;5042021;28;20232;-57
2021/03/06 12:31:44;;;;;;;3.22;1.50;;;22.10;14.90;;;;;;5040519;28;20049;-58
2021/03/06 12:34:14;;;;;;;2.70;1.35;;;21.70;15.00;;;;;;5039975;28;20345;-58
2021/03/06 12:36:42;;;;;;;4.40;2.30;;;21.90;15.30;;;;;;5037315;28;20049;-57
2021/03/06 12:39:10;;;;;;;3.63;1.75;;;22.30;15.90;;;;;;5043281;28;20255;-57
2021/03/06 12:41:38;;;;;;;3.65;1.73;;;22.90;14.90;;;;;;5054894;28;20044;-57
2021/03/06 12:44:09;;;;;;;5.18;2.50;;;22.90;14.70;;;;;;5038862;28;20064;-57
2021/03/06 12:46:37;;;;;;;4.22;2.38;;;22.60;15.00;;;;;;5040200;28;20080;-58
2021/03/06 12:49:14;;;;;;;3.20;1.63;;;22.60;15.00;;;;;;5039039;28;20041;-57